Time;durP1;ratioP1;P1;durP2;ratioP2;P2;SDS_P1;SDS_P2;PMS_P1;PMS_P2;Temp;Humidity;BMP_temperature;BMP_pressure;BME280_temperature;BME280_humidity;BME280_pressure;Samples;Min_cycle;Max_cycle;Signal;HPM_P1;HPM_P2
2022/07/25 00:08:51;;;;;;;5.85;0.93;;;24.80;99.90;;;;;;20618044;28;20042;-36
2022/07/25 00:18:52;;;;;;;1.48;0.65;;;24.70;99.90;;;;;;20629335;28;20492;-37
2022/07/25 00:28:53;;;;;;;3.70;1.40;;;24.60;99.90;;;;;;20627203;28;20482;-37
2022/07/25 00:38:54;;;;;;;1.70;0.75;;;24.60;99.90;;;;;;20622531;28;20398;-36
2022/07/25 00:48:55;;;;;;;1.98;1.02;;;24.40;99.90;;;;;;20635195;28;20486;-37
2022/07/25 00:58:56;;;;;;;2.03;1.05;;;23.90;99.90;;;;;;20638549;28;20473;-36
2022/07/25 01:08:58;;;;;;;2.65;1.02;;;23.60;99.90;;;;;;20637233;28;20530;-36
2022/07/25 01:19:00;;;;;;;2.80;1.00;;;23.30;99.90;;;;;;20633896;28;20037;-36
2022/07/25 01:29:00;;;;;;;2.40;1.00;;;23.00;99.90;;;;;;20634828;28;20117;-36
2022/07/25 01:39:02;;;;;;;2.40;1.02;;;22.80;99.90;;;;;;20631765;28;20049;-38
2022/07/25 01:49:03;;;;;;;1.90;1.05;;;22.50;99.90;;;;;;20634432;28;20113;-39
2022/07/25 01:59:04;;;;;;;1.88;0.93;;;22.40;99.90;;;;;;20635497;28;20148;-39
2022/07/25 02:09:06;;;;;;;2.75;1.02;;;22.20;99.90;;;;;;20629624;28;20030;-39
2022/07/25 02:19:07;;;;;;;1.50;0.80;;;22.00;99.90;;;;;;20630179;28;20378;-39
2022/07/25 02:29:08;;;;;;;1.45;0.70;;;21.90;99.90;;;;;;20626840;28;20101;-39
2022/07/25 02:39:09;;;;;;;2.03;1.00;;;21.90;99.90;;;;;;20625070;28;20101;-39
2022/07/25 02:49:10;;;;;;;3.67;1.55;;;21.80;99.90;;;;;;20629002;28;20263;-39
2022/07/25 02:59:11;;;;;;;2.53;1.10;;;21.80;99.90;;;;;;20629985;28;20030;-39
2022/07/25 03:09:12;;;;;;;3.20;1.55;;;21.70;99.90;;;;;;20625668;28;20038;-39
2022/07/25 03:19:13;;;;;;;1.90;0.90;;;21.70;99.90;;;;;;20627992;28;20042;-39
2022/07/25 03:29:14;;;;;;;2.35;1.38;;;21.70;99.90;;;;;;20624838;28;20038;-39
2022/07/25 03:39:15;;;;;;;3.25;1.10;;;21.60;99.90;;;;;;20623560;28;22481;-39
2022/07/25 03:49:17;;;;;;;3.88;1.20;;;21.70;99.90;;;;;;20629162;28;20439;-39
2022/07/25 03:59:19;;;;;;;2.03;1.10;;;21.70;99.90;;;;;;20625411;28;20038;-39
2022/07/25 04:09:21;;;;;;;3.47;1.30;;;21.70;99.90;;;;;;20620364;28;20536;-39
2022/07/25 04:19:21;;;;;;;5.70;2.53;;;21.70;99.90;;;;;;20626076;28;20141;-39
2022/07/25 04:29:23;;;;;;;3.40;1.60;;;21.50;99.90;;;;;;20635114;28;20505;-39
2022/07/25 04:39:24;;;;;;;3.63;1.92;;;21.50;99.90;;;;;;20643602;28;20631;-39
2022/07/25 04:49:25;;;;;;;4.25;2.08;;;21.50;99.90;;;;;;20637536;28;20518;-39
2022/07/25 04:59:26;;;;;;;3.47;2.20;;;21.50;99.90;;;;;;20639725;28;20034;-39
2022/07/25 05:09:27;;;;;;;4.75;2.05;;;21.40;99.90;;;;;;20633137;28;20528;-39
2022/07/25 05:19:29;;;;;;;4.95;2.20;;;21.30;99.90;;;;;;20629748;28;20707;-39
2022/07/25 05:29:31;;;;;;;4.50;1.90;;;21.40;99.90;;;;;;20632180;28;20080;-39
2022/07/25 05:39:32;;;;;;;4.82;2.13;;;21.70;99.90;;;;;;20628505;28;20133;-39
2022/07/25 05:49:33;;;;;;;1.90;1.08;;;22.00;99.90;;;;;;20626331;28;20509;-39
2022/07/25 05:59:34;;;;;;;2.17;1.23;;;22.10;99.90;;;;;;20632046;28;20759;-39
2022/07/25 06:09:35;;;;;;;3.45;1.23;;;22.10;99.90;;;;;;20634123;28;20477;-39
2022/07/25 06:19:36;;;;;;;2.85;0.90;;;22.30;99.90;;;;;;20627753;28;20089;-39
2022/07/25 06:29:37;;;;;;;1.95;0.85;;;22.50;99.90;;;;;;20632319;28;20050;-39
2022/07/25 06:39:38;;;;;;;1.83;0.60;;;22.70;99.90;;;;;;20621459;28;20160;-38
2022/07/25 06:49:40;;;;;;;1.10;0.50;;;22.60;99.90;;;;;;20623904;28;20042;-38
2022/07/25 06:59:43;;;;;;;2.47;1.10;;;22.60;99.90;;;;;;20618960;28;20505;-39
2022/07/25 07:09:45;;;;;;;1.92;0.60;;;22.20;99.90;;;;;;20614440;28;22302;-38
2022/07/25 07:19:46;;;;;;;1.20;0.50;;;22.10;99.90;;;;;;20615991;28;20501;-39
2022/07/25 07:29:46;;;;;;;1.65;0.40;;;22.00;99.90;;;;;;20618184;28;20462;-39
2022/07/25 07:39:48;;;;;;;2.72;0.90;;;22.10;99.90;;;;;;20595541;28;20465;-39
2022/07/25 07:49:48;;;;;;;1.50;0.28;;;22.40;99.90;;;;;;20594071;28;20906;-38
2022/07/25 07:59:49;;;;;;;1.30;0.40;;;22.40;99.90;;;;;;20625576;28;20041;-39
2022/07/25 08:09:50;;;;;;;0.60;0.30;;;22.40;99.90;;;;;;20626892;28;20174;-39
2022/07/25 08:19:52;;;;;;;0.82;0.30;;;22.50;99.90;;;;;;20629653;28;20046;-39
2022/07/25 08:29:53;;;;;;;1.13;0.40;;;22.80;99.90;;;;;;20627028;28;20492;-40
2022/07/25 08:39:54;;;;;;;1.10;0.50;;;22.40;99.90;;;;;;20654233;28;20065;-39
2022/07/25 08:49:55;;;;;;;7.25;2.17;;;22.70;99.90;;;;;;20637788;28;21030;-38
2022/07/25 08:59:59;;;;;;;1.50;0.50;;;22.50;99.90;;;;;;20601584;28;20526;-38
2022/07/25 09:10:21;;;;;;;0.95;0.50;;;22.50;99.90;;;;;;20632420;28;20445;-38
2022/07/25 09:20:23;;;;;;;2.15;0.43;;;23.00;99.90;;;;;;20623926;28;20895;-38
2022/07/25 09:30:24;;;;;;;1.13;0.40;;;23.30;99.90;;;;;;20631381;28;20058;-38
2022/07/25 09:40:25;;;;;;;1.20;0.50;;;23.50;99.90;;;;;;20610244;28;20050;-38
2022/07/25 09:50:28;;;;;;;0.82;0.38;;;23.90;99.90;;;;;;20615884;28;20069;-38
2022/07/25 10:00:31;;;;;;;8.55;0.98;;;23.60;99.90;;;;;;20587534;28;20880;-39
2022/07/25 10:10:37;;;;;;;2.53;0.63;;;23.50;99.90;;;;;;20625074;28;20078;-39
2022/07/25 10:20:38;;;;;;;1.73;0.30;;;23.80;99.90;;;;;;20643328;28;20038;-38
2022/07/25 10:30:41;;;;;;;5.50;0.65;;;23.90;99.90;;;;;;20633841;28;20054;-39
2022/07/25 10:40:45;;;;;;;1.70;0.60;;;23.50;99.90;;;;;;20653026;28;20121;-39
2022/07/25 10:50:48;;;;;;;1.63;0.47;;;24.00;99.90;;;;;;20633820;28;20046;-39
2022/07/25 11:00:50;;;;;;;1.42;0.57;;;23.90;99.90;;;;;;20570057;28;20034;-39
2022/07/25 11:10:54;;;;;;;1.88;0.70;;;23.30;99.90;;;;;;20610767;28;20038;-39
2022/07/25 11:21:03;;;;;;;2.05;0.50;;;22.80;99.90;;;;;;20619091;28;21387;-39
2022/07/25 11:31:04;;;;;;;6.85;1.00;;;22.40;99.90;;;;;;20620284;28;20201;-39
2022/07/25 11:41:06;;;;;;;3.33;0.73;;;22.30;99.90;;;;;;20571363;28;20047;-40
2022/07/25 11:51:13;;;;;;;1.63;0.70;;;22.80;99.90;;;;;;20622046;28;20651;-38
2022/07/25 12:01:15;;;;;;;5.37;1.00;;;22.50;99.90;;;;;;20607778;28;20061;-39
2022/07/25 12:11:21;;;;;;;2.72;0.70;;;23.00;99.90;;;;;;20620238;28;20243;-39
2022/07/25 12:21:22;;;;;;;1.45;0.50;;;23.60;99.90;;;;;;20589464;28;22245;-38
2022/07/25 12:31:27;;;;;;;2.67;1.38;;;23.20;99.90;;;;;;20599945;28;20092;-38
2022/07/25 12:41:28;;;;;;;1.02;0.47;;;23.20;99.90;;;;;;20605837;28;20481;-39
2022/07/25 12:51:29;;;;;;;0.98;0.30;;;24.00;99.90;;;;;;20621403;28;20136;-39
2022/07/25 13:01:30;;;;;;;1.23;0.40;;;24.00;99.90;;;;;;20624852;28;20084;-38
2022/07/25 13:11:31;;;;;;;2.65;0.70;;;24.50;99.90;;;;;;20627226;28;21867;-39
2022/07/25 13:21:32;;;;;;;1.05;0.40;;;24.20;99.90;;;;;;20631269;28;20085;-39
2022/07/25 13:31:38;;;;;;;1.50;0.60;;;24.70;99.90;;;;;;20638631;28;20530;-38
2022/07/25 13:41:39;;;;;;;3.25;0.60;;;25.00;99.90;;;;;;20630926;28;21994;-38
2022/07/25 13:51:40;;;;;;;4.70;1.20;;;24.60;99.90;;;;;;20627993;28;20073;-39
2022/07/25 14:01:42;;;;;;;3.28;0.93;;;24.20;99.90;;;;;;20632857;28;20044;-39
2022/07/25 14:11:43;;;;;;;1.15;0.38;;;23.70;99.90;;;;;;20626330;28;20125;-40
2022/07/25 14:21:44;;;;;;;1.20;0.50;;;24.10;99.90;;;;;;20629141;28;20440;-39
2022/07/25 14:31:45;;;;;;;0.40;0.20;;;24.40;99.90;;;;;;20627930;28;20069;-39
2022/07/25 14:41:46;;;;;;;3.17;0.55;;;24.30;99.90;;;;;;20630502;28;20128;-39
2022/07/25 14:51:48;;;;;;;0.93;0.32;;;23.70;99.90;;;;;;20627660;28;20164;-40
2022/07/25 15:01:49;;;;;;;1.83;0.40;;;23.60;99.90;;;;;;20627954;28;21452;-39
2022/07/25 15:11:50;;;;;;;3.15;1.65;;;23.30;99.90;;;;;;20631985;28;20114;-39
2022/07/25 15:21:51;;;;;;;2.70;0.63;;;23.30;99.90;;;;;;20636198;28;20038;-39
2022/07/25 15:31:52;;;;;;;0.90;0.30;;;23.50;99.90;;;;;;20611475;28;20060;-39
2022/07/25 15:41:53;;;;;;;2.83;0.30;;;23.60;99.90;;;;;;20634513;28;20057;-39
2022/07/25 15:51:54;;;;;;;1.25;0.30;;;23.50;99.90;;;;;;20615024;28;20037;-39
2022/07/25 16:01:55;;;;;;;2.92;0.60;;;24.00;99.90;;;;;;20626653;28;20070;-38
2022/07/25 16:11:57;;;;;;;1.08;0.30;;;23.70;99.90;;;;;;20620994;28;20169;-39
2022/07/25 16:21:58;;;;;;;1.88;0.40;;;23.20;99.90;;;;;;20664679;28;20750;-39
2022/07/25 16:31:59;;;;;;;2.40;0.65;;;22.90;99.90;;;;;;20634715;28;20137;-39
2022/07/25 16:42:00;;;;;;;2.75;0.50;;;22.90;99.90;;;;;;20635883;28;21050;-38
2022/07/25 16:52:01;;;;;;;2.47;1.00;;;22.60;99.90;;;;;;20649311;28;20137;-40
2022/07/25 17:02:02;;;;;;;2.20;0.70;;;22.50;99.90;;;;;;20683090;28;20434;-38
2022/07/25 17:12:04;;;;;;;3.30;1.48;;;21.80;99.90;;;;;;20651826;28;20042;-39
2022/07/25 17:22:06;;;;;;;2.58;0.60;;;21.90;99.90;;;;;;20627459;28;20120;-39
2022/07/25 17:32:07;;;;;;;1.88;0.40;;;21.80;99.90;;;;;;20618392;28;20502;-39
2022/07/25 17:42:08;;;;;;;10.35;3.78;;;21.70;99.90;;;;;;20626045;28;20600;-38
2022/07/25 17:52:11;;;;;;;1.02;0.40;;;21.40;99.90;;;;;;20670530;28;20038;-38
2022/07/25 18:02:12;;;;;;;8.32;0.82;;;21.20;99.90;;;;;;20682002;28;20559;-39
2022/07/25 18:12:13;;;;;;;6.47;1.30;;;21.10;99.90;;;;;;20697102;28;20042;-38
2022/07/25 18:22:14;;;;;;;2.22;0.60;;;21.10;99.90;;;;;;20685308;28;20367;-38
2022/07/25 18:32:15;;;;;;;1.40;0.50;;;20.90;99.90;;;;;;20699532;28;20045;-39
2022/07/25 18:42:16;;;;;;;1.65;0.55;;;20.80;99.90;;;;;;20688268;28;20053;-39
2022/07/25 18:52:17;;;;;;;3.17;0.55;;;20.60;99.90;;;;;;20680806;28;20081;-39
2022/07/25 19:02:18;;;;;;;2.05;0.32;;;20.50;99.90;;;;;;20615934;28;20042;-39
2022/07/25 19:12:19;;;;;;;2.78;0.50;;;20.60;99.90;;;;;;20625407;28;20136;-38
2022/07/25 19:22:20;;;;;;;2.85;0.90;;;20.60;99.90;;;;;;20629310;28;20089;-38
2022/07/25 19:32:21;;;;;;;15.57;1.25;;;20.40;99.90;;;;;;20667319;28;20768;-38
2022/07/25 19:42:22;;;;;;;2.33;0.60;;;20.20;99.90;;;;;;20673586;28;20050;-39
2022/07/25 19:52:23;;;;;;;5.93;0.98;;;20.20;99.90;;;;;;20672674;28;20050;-39
2022/07/25 20:02:24;;;;;;;6.53;1.15;;;20.20;99.90;;;;;;20687507;28;20026;-38
2022/07/25 20:12:25;;;;;;;1.52;0.55;;;20.10;99.90;;;;;;20652142;28;20054;-39
2022/07/25 20:22:27;;;;;;;1.73;0.68;;;20.10;99.90;;;;;;20641455;28;20514;-39
2022/07/25 20:32:28;;;;;;;6.65;1.83;;;20.00;99.90;;;;;;20630954;28;20132;-38
2022/07/25 20:42:30;;;;;;;2.67;0.90;;;20.00;99.90;;;;;;20680969;28;20122;-38
2022/07/25 20:52:32;;;;;;;3.30;0.70;;;19.80;99.90;;;;;;20665764;28;20034;-39
2022/07/25 21:02:33;;;;;;;3.63;1.00;;;19.60;99.90;;;;;;20684099;28;20184;-38
2022/07/25 21:12:35;;;;;;;2.67;1.30;;;19.50;99.90;;;;;;20680028;28;20035;-39
2022/07/25 21:22:36;;;;;;;4.07;0.80;;;19.50;99.90;;;;;;20717604;28;20120;-39
2022/07/25 21:32:39;;;;;;;6.03;1.40;;;19.50;99.90;;;;;;20689778;28;20457;-39
2022/07/25 21:42:40;;;;;;;3.35;0.90;;;19.50;99.90;;;;;;20713400;28;20046;-39
2022/07/25 21:52:41;;;;;;;20.15;2.80;;;19.30;99.90;;;;;;20721549;28;20045;-39
2022/07/25 22:02:44;;;;;;;8.05;0.85;;;19.50;99.90;;;;;;20721015;28;20058;-39
2022/07/25 22:12:46;;;;;;;2.63;0.75;;;19.60;99.90;;;;;;20671691;28;20060;-39
2022/07/25 22:22:47;;;;;;;9.27;1.05;;;19.60;99.90;;;;;;20673349;28;20085;-38
2022/07/25 22:32:49;;;;;;;6.93;0.90;;;19.60;99.90;;;;;;20679419;28;20049;-38
2022/07/25 22:42:50;;;;;;;5.80;1.88;;;19.70;99.90;;;;;;20682972;28;20101;-38
2022/07/25 22:52:51;;;;;;;3.97;0.73;;;19.80;99.90;;;;;;20634550;28;20073;-39
2022/07/25 23:02:52;;;;;;;2.58;1.13;;;19.70;99.90;;;;;;20626023;28;20121;-38
2022/07/25 23:12:53;;;;;;;4.28;1.13;;;19.70;99.90;;;;;;20643226;28;20037;-38
2022/07/25 23:22:54;;;;;;;5.20;1.10;;;19.60;99.90;;;;;;20636964;28;20543;-39
2022/07/25 23:32:55;;;;;;;2.13;0.98;;;19.70;99.90;;;;;;20618291;28;20364;-39
2022/07/25 23:42:56;;;;;;;2.40;0.93;;;19.70;99.90;;;;;;20619902;28;20186;-39
2022/07/25 23:52:58;;;;;;;2.38;0.90;;;19.50;99.90;;;;;;20614932;28;20145;-39
